Time;durP1;ratioP1;P1;durP2;ratioP2;P2;SDS_P1;SDS_P2;PMS_P1;PMS_P2;Temp;Humidity;BMP_temperature;BMP_pressure;BME280_temperature;BME280_humidity;BME280_pressure;Samples;Min_cycle;Max_cycle;Signal;HPM_P1;HPM_P2
2023/05/10 00:00:32;;;;;;;139.18;59.38;;;;;;;18.22;44.42;100639.50;5058129;28;20020;-74
2023/05/10 00:02:57;;;;;;;141.73;60.15;;;;;;;18.20;44.54;100631.66;5039529;28;20100;-74
2023/05/10 00:05:22;;;;;;;144.35;61.35;;;;;;;18.21;45.27;100635.13;5069119;28;20043;-74
2023/05/10 00:07:48;;;;;;;142.50;61.67;;;;;;;18.18;44.59;100638.78;5050922;28;20432;-74
2023/05/10 00:10:13;;;;;;;140.77;60.95;;;;;;;18.18;44.83;100633.50;5027602;28;20390;-74
2023/05/10 00:12:38;;;;;;;140.30;60.42;;;;;;;18.18;44.93;100638.78;5023563;28;20028;-74
2023/05/10 00:15:05;;;;;;;142.77;60.70;;;;;;;18.18;44.97;100632.66;5050921;28;20118;-74
2023/05/10 00:17:30;;;;;;;156.38;64.13;;;;;;;18.16;45.39;100630.09;5014628;28;20029;-74
2023/05/10 00:19:55;;;;;;;148.25;64.43;;;;;;;18.15;45.45;100631.00;5017706;28;20100;-74
2023/05/10 00:22:21;;;;;;;144.55;61.92;;;;;;;18.16;44.98;100629.22;5052083;28;20108;-74
2023/05/10 00:24:46;;;;;;;143.38;62.95;;;;;;;18.16;45.92;100629.22;5052105;28;20460;-74
2023/05/10 00:27:11;;;;;;;143.90;62.30;;;;;;;18.14;45.54;100631.09;5050785;28;20032;-74
2023/05/10 00:29:37;;;;;;;140.60;61.03;;;;;;;18.13;45.73;100624.94;5042001;28;20032;-74
2023/05/10 00:32:02;;;;;;;144.25;62.42;;;;;;;18.14;45.55;100623.16;5034025;28;20488;-74
2023/05/10 00:34:28;;;;;;;145.55;63.10;;;;;;;18.13;46.18;100621.44;5018199;28;20040;-74
2023/05/10 00:36:53;;;;;;;150.40;63.33;;;;;;;18.13;46.56;100624.09;5051734;28;20028;-74
2023/05/10 00:39:19;;;;;;;142.55;61.05;;;;;;;18.12;46.31;100611.78;5015209;28;20016;-74
2023/05/10 00:41:44;;;;;;;142.70;62.88;;;;;;;18.11;46.73;100620.69;5008786;28;20029;-75
2023/05/10 00:44:10;;;;;;;161.68;65.13;;;;;;;18.11;46.55;100616.25;5063796;28;20021;-74
2023/05/10 00:46:35;;;;;;;140.85;60.95;;;;;;;18.10;46.47;100611.88;5037180;28;20481;-74
2023/05/10 00:49:01;;;;;;;149.40;62.67;;;;;;;18.11;46.65;100615.41;5013309;28;20071;-74
2023/05/10 00:51:26;;;;;;;133.85;61.35;;;;;;;18.08;47.08;100608.47;5031186;28;20017;-74
2023/05/10 00:53:52;;;;;;;143.27;61.75;;;;;;;18.08;47.13;100611.09;5035400;28;20155;-74
2023/05/10 00:56:17;;;;;;;139.82;60.85;;;;;;;18.07;47.09;100607.59;5016754;28;20063;-74
2023/05/10 00:58:43;;;;;;;135.43;60.42;;;;;;;18.08;47.15;100608.47;5012454;28;20040;-74
2023/05/10 01:01:09;;;;;;;143.95;62.85;;;;;;;18.07;47.28;100604.94;5033703;28;20025;-73
2023/05/10 01:03:38;;;;;;;141.75;62.95;;;;;;;18.06;47.42;100599.75;5015941;28;20112;-73
2023/05/10 01:06:04;;;;;;;142.80;62.22;;;;;;;18.04;47.52;100594.53;5012584;28;20029;-73
2023/05/10 01:08:32;;;;;;;140.20;62.35;;;;;;;18.04;47.00;100599.81;5028479;28;20379;-73
2023/05/10 01:10:58;;;;;;;141.25;61.15;;;;;;;18.04;46.99;100599.81;5033361;28;20071;-73
2023/05/10 01:13:33;;;;;;;133.18;60.08;;;;;;;18.03;46.96;100590.16;5034450;28;20056;-73
2023/05/10 01:16:01;;;;;;;133.88;60.17;;;;;;;18.02;47.10;100591.09;5035634;28;20025;-73
2023/05/10 01:18:28;;;;;;;139.95;61.58;;;;;;;18.02;47.31;100595.53;5017248;28;20102;-73
2023/05/10 01:21:05;;;;;;;143.48;62.22;;;;;;;18.02;47.08;100593.75;5023862;28;20032;-73
2023/05/10 01:23:45;;;;;;;140.52;60.08;;;;;;;18.01;47.95;100589.41;5051029;28;20021;-73
2023/05/10 01:26:25;;;;;;;154.20;61.67;;;;;;;18.00;47.08;100592.97;5014845;28;20033;-73
2023/05/10 01:29:08;;;;;;;141.98;61.70;;;;;;;18.01;48.04;100593.81;5031911;28;20021;-73
2023/05/10 01:31:49;;;;;;;138.95;59.90;;;;;;;17.99;48.14;100599.19;5028566;28;20116;-73
2023/05/10 01:34:21;;;;;;;159.63;62.47;;;;;;;17.97;47.58;100593.13;5033409;28;20479;-73
2023/05/10 01:37:02;;;;;;;140.20;60.03;;;;;;;17.97;47.51;100593.13;5016844;28;20500;-73
2023/05/10 01:39:44;;;;;;;137.73;59.65;;;;;;;17.97;47.27;100592.25;5012747;28;20021;-73
2023/05/10 01:42:11;;;;;;;142.43;60.47;;;;;;;17.97;47.86;100601.06;5024307;28;20024;-73
2023/05/10 01:44:48;;;;;;;132.07;59.28;;;;;;;17.95;47.89;100594.97;5016050;28;20021;-73
2023/05/10 01:47:17;;;;;;;138.77;60.35;;;;;;;17.95;47.80;100597.63;5040994;28;20025;-73
2023/05/10 01:49:53;;;;;;;150.07;61.55;;;;;;;17.94;47.44;100587.13;5041481;28;20366;-73
2023/05/10 01:52:25;;;;;;;149.85;61.40;;;;;;;17.93;47.14;100591.56;5032797;28;20079;-74
2023/05/10 01:54:55;;;;;;;141.75;60.58;;;;;;;17.92;47.12;100584.56;5031312;28;20047;-73
2023/05/10 01:57:25;;;;;;;141.00;60.33;;;;;;;17.91;47.42;100585.47;5032571;28;20091;-73
2023/05/10 01:59:51;;;;;;;152.20;62.22;;;;;;;17.92;47.69;100581.09;5028812;28;21297;-74
2023/05/10 02:02:20;;;;;;;147.43;61.58;;;;;;;17.90;47.75;100581.97;5024074;28;20021;-74
2023/05/10 02:04:46;;;;;;;146.35;60.70;;;;;;;17.89;47.60;100574.13;5030948;28;20021;-73
2023/05/10 02:07:11;;;;;;;144.65;60.25;;;;;;;17.89;48.25;100585.53;5014572;28;20025;-74
2023/05/10 02:09:38;;;;;;;147.05;61.35;;;;;;;17.90;48.02;100581.09;5038798;28;20029;-74
2023/05/10 02:12:05;;;;;;;145.88;60.78;;;;;;;17.87;47.99;100581.25;5031690;28;20470;-73
2023/05/10 02:14:32;;;;;;;141.32;61.08;;;;;;;17.88;47.96;100582.97;5034347;28;20094;-74
2023/05/10 02:16:58;;;;;;;141.45;60.72;;;;;;;17.87;48.00;100582.13;5035663;28;20086;-74
2023/05/10 02:19:25;;;;;;;139.93;61.03;;;;;;;17.88;48.37;100588.25;5039234;28;20031;-73
2023/05/10 02:21:51;;;;;;;148.45;62.13;;;;;;;17.88;48.16;100582.97;5030318;28;20094;-73
2023/05/10 02:24:17;;;;;;;155.57;63.58;;;;;;;17.86;47.86;100587.47;5026719;28;20021;-73
2023/05/10 02:26:44;;;;;;;139.80;59.42;;;;;;;17.86;48.25;100587.47;5035293;28;20464;-74
2023/05/10 02:29:09;;;;;;;141.85;61.95;;;;;;;17.85;48.14;100588.41;5041190;28;20033;-73
2023/05/10 02:31:35;;;;;;;139.25;60.25;;;;;;;17.84;48.09;100584.06;5030149;28;20537;-73
2023/05/10 02:34:01;;;;;;;142.93;60.97;;;;;;;17.84;48.26;100587.53;5028008;28;20516;-73
2023/05/10 02:36:27;;;;;;;148.52;62.45;;;;;;;17.83;48.37;100582.34;5019535;28;20029;-73
2023/05/10 02:38:53;;;;;;;155.32;62.55;;;;;;;17.83;48.54;100585.84;5018931;28;20017;-73
2023/05/10 02:41:21;;;;;;;146.73;61.25;;;;;;;17.83;48.45;100582.34;5036690;28;20032;-73
2023/05/10 02:43:47;;;;;;;142.05;60.33;;;;;;;17.82;48.50;100581.50;5017411;28;20021;-72
2023/05/10 02:46:12;;;;;;;138.73;60.28;;;;;;;17.82;48.85;100583.25;5036302;28;20041;-73
2023/05/10 02:48:38;;;;;;;153.65;61.92;;;;;;;17.80;48.60;100574.56;5034793;28;20075;-72
2023/05/10 02:51:05;;;;;;;132.50;59.15;;;;;;;17.81;48.88;100579.78;5018782;28;20033;-72
2023/05/10 02:53:33;;;;;;;135.30;59.05;;;;;;;17.80;48.66;100578.06;5049951;28;20058;-73
2023/05/10 02:56:03;;;;;;;139.77;60.20;;;;;;;17.80;48.58;100574.56;5042837;28;20025;-73
2023/05/10 02:58:28;;;;;;;141.18;60.80;;;;;;;17.79;48.56;100562.28;5017653;28;20497;-73
2023/05/10 03:00:54;;;;;;;140.85;59.85;;;;;;;17.78;48.72;100569.34;5026126;28;20036;-73
2023/05/10 03:03:19;;;;;;;136.73;60.55;;;;;;;17.78;48.64;100572.00;5035968;28;20460;-73
2023/05/10 03:05:45;;;;;;;142.90;59.60;;;;;;;17.77;48.68;100570.28;5019217;28;20032;-73
2023/05/10 03:08:10;;;;;;;142.05;60.33;;;;;;;17.77;48.68;100566.78;5047590;28;20053;-73
2023/05/10 03:10:41;;;;;;;133.48;58.38;;;;;;;17.76;49.12;100567.72;5035337;28;20029;-73
2023/05/10 03:13:35;;;;;;;140.27;60.25;;;;;;;17.76;48.62;100565.06;5017694;28;20413;-73
2023/05/10 03:16:15;;;;;;;141.80;60.20;;;;;;;17.76;48.82;100570.34;5038293;28;20060;-74
2023/05/10 03:19:04;;;;;;;138.10;59.88;;;;;;;17.76;48.05;100565.06;5032521;28;20032;-74
2023/05/10 03:21:30;;;;;;;133.27;59.35;;;;;;;17.76;48.51;100567.72;5045176;28;20365;-74
2023/05/10 03:24:06;;;;;;;135.55;59.50;;;;;;;17.77;48.55;100569.44;5053676;28;20056;-73
2023/05/10 03:26:31;;;;;;;140.88;59.67;;;;;;;17.76;48.52;100568.56;5018564;28;20030;-74
2023/05/10 03:28:58;;;;;;;141.02;60.47;;;;;;;17.77;48.50;100564.16;5031904;28;20505;-74
2023/05/10 03:31:24;;;;;;;138.68;59.85;;;;;;;17.77;48.32;100561.50;5014802;28;20020;-73
2023/05/10 03:33:51;;;;;;;133.90;58.40;;;;;;;17.77;48.42;100569.44;5019417;28;20056;-74
2023/05/10 03:36:22;;;;;;;141.30;60.70;;;;;;;17.76;48.36;100568.56;5035572;28;20060;-74
2023/05/10 03:38:47;;;;;;;147.68;61.15;;;;;;;17.76;47.99;100567.72;5028060;28;20021;-74
2023/05/10 03:41:13;;;;;;;138.93;60.78;;;;;;;17.76;47.99;100567.72;5031153;28;20033;-74
2023/05/10 03:43:39;;;;;;;136.40;59.40;;;;;;;17.76;48.45;100563.28;5042434;28;20053;-75
2023/05/10 03:46:05;;;;;;;143.43;61.53;;;;;;;17.76;47.96;100559.78;5035417;28;20106;-74
2023/05/10 03:48:32;;;;;;;145.18;61.65;;;;;;;17.76;48.24;100565.91;5015943;28;20067;-74
2023/05/10 03:50:57;;;;;;;148.27;59.88;;;;;;;17.76;48.44;100565.06;5025367;28;20036;-74
2023/05/10 03:53:23;;;;;;;131.32;58.50;;;;;;;17.77;48.16;100561.50;5026870;28;20021;-74
2023/05/10 03:55:48;;;;;;;141.40;59.40;;;;;;;17.77;48.28;100554.44;5017646;28;20393;-74
2023/05/10 03:58:13;;;;;;;151.18;60.95;;;;;;;17.77;48.52;100559.72;5041177;28;20470;-74
2023/05/10 04:00:43;;;;;;;138.00;58.25;;;;;;;17.79;48.95;100562.28;5048222;28;20033;-74
2023/05/10 04:03:09;;;;;;;138.13;57.63;;;;;;;17.80;48.89;100566.63;5036545;28;20496;-74
2023/05/10 04:05:35;;;;;;;135.77;57.53;;;;;;;17.80;48.58;100564.00;5018275;28;20021;-74
2023/05/10 04:08:01;;;;;;;136.45;58.72;;;;;;;17.82;48.72;100562.13;5031287;28;20031;-74
2023/05/10 04:10:26;;;;;;;132.77;58.03;;;;;;;17.82;48.50;100556.84;5032856;28;20127;-74
2023/05/10 04:12:52;;;;;;;152.60;60.40;;;;;;;17.83;48.67;100559.44;5049930;28;20512;-74
2023/05/10 04:15:17;;;;;;;143.65;61.08;;;;;;;17.85;48.38;100556.72;5005223;28;20496;-74
2023/05/10 04:17:43;;;;;;;142.80;59.03;;;;;;;17.86;48.32;100553.13;5007244;28;20037;-74
2023/05/10 04:20:12;;;;;;;163.18;63.63;;;;;;;17.89;48.87;100558.28;4998275;28;20151;-73
2023/05/10 04:22:37;;;;;;;138.38;58.55;;;;;;;17.90;48.67;100552.03;5021360;28;20123;-73
2023/05/10 04:25:03;;;;;;;135.25;57.63;;;;;;;17.93;48.04;100554.56;5033447;28;20104;-73
2023/05/10 04:27:28;;;;;;;151.80;60.22;;;;;;;17.94;48.30;100555.41;5020964;28;20028;-73
2023/05/10 04:29:54;;;;;;;150.40;60.40;;;;;;;17.97;48.46;100556.13;5019899;28;20024;-73
2023/05/10 04:32:20;;;;;;;137.95;57.95;;;;;;;17.98;48.14;100552.53;5018149;28;20021;-73
2023/05/10 04:34:46;;;;;;;137.63;59.05;;;;;;;18.01;48.48;100555.06;5013326;28;20032;-73
2023/05/10 04:37:12;;;;;;;141.18;61.40;;;;;;;18.03;48.57;100552.34;5037950;28;20025;-73
2023/05/10 04:39:37;;;;;;;142.57;60.35;;;;;;;18.07;48.15;100552.09;5028416;22;20334;-69
2023/05/10 04:42:03;;;;;;;143.93;60.20;;;;;;;18.10;47.41;100555.53;5026668;28;20082;-69
2023/05/10 04:44:29;;;;;;;138.45;59.15;;;;;;;18.13;47.74;100555.38;5051998;28;20031;-70
2023/05/10 04:46:54;;;;;;;145.88;61.15;;;;;;;18.17;47.65;100556.91;5026035;28;20437;-69
2023/05/10 04:49:20;;;;;;;136.57;58.80;;;;;;;18.21;48.04;100553.19;5022533;28;20025;-68
2023/05/10 04:51:45;;;;;;;144.27;61.63;;;;;;;18.27;47.33;100550.25;5008212;28;20055;-69
2023/05/10 04:54:11;;;;;;;156.98;62.45;;;;;;;18.29;47.61;100556.31;5024202;28;20029;-68
2023/05/10 04:56:36;;;;;;;143.07;60.63;;;;;;;18.31;46.99;100549.16;5034208;28;20025;-68
2023/05/10 04:59:02;;;;;;;143.93;61.75;;;;;;;18.37;47.18;100556.75;5021897;28;20076;-69
2023/05/10 05:01:28;;;;;;;137.25;59.63;;;;;;;18.40;46.87;100548.66;5030780;28;20117;-68
2023/05/10 05:03:53;;;;;;;135.63;60.67;;;;;;;18.44;46.56;100548.53;5030723;28;20287;-69
2023/05/10 05:06:20;;;;;;;144.65;61.85;;;;;;;18.48;46.71;100552.72;5030526;28;20029;-69
2023/05/10 05:08:45;;;;;;;134.80;60.67;;;;;;;18.54;46.25;100558.56;4995118;28;20415;-69
2023/05/10 05:11:11;;;;;;;140.25;61.13;;;;;;;18.60;46.29;100554.72;5012511;28;20022;-70
2023/05/10 05:13:37;;;;;;;142.02;60.70;;;;;;;18.63;46.06;100549.28;4990821;28;20032;-69
2023/05/10 05:16:02;;;;;;;143.25;62.83;;;;;;;18.66;46.05;100553.56;5022051;28;20040;-70
2023/05/10 05:18:28;;;;;;;155.98;63.28;;;;;;;18.69;45.99;100559.56;5012924;28;20022;-70
2023/05/10 05:20:53;;;;;;;145.30;62.03;;;;;;;18.72;45.67;100559.38;5024824;28;20041;-70
2023/05/10 05:23:20;;;;;;;144.43;61.63;;;;;;;18.75;45.52;100553.91;5018457;28;20029;-69
2023/05/10 05:25:45;;;;;;;142.60;62.22;;;;;;;18.79;45.59;100562.56;5012020;28;20083;-70
2023/05/10 05:28:11;;;;;;;131.25;59.83;;;;;;;18.85;45.17;100558.72;5023587;28;20021;-69
2023/05/10 05:30:36;;;;;;;137.88;61.72;;;;;;;18.91;44.62;100563.75;5009410;28;20032;-70
2023/05/10 05:33:02;;;;;;;141.05;61.85;;;;;;;18.98;44.76;100556.31;5008403;28;20435;-70
2023/05/10 05:35:27;;;;;;;139.48;60.92;;;;;;;19.05;44.30;100561.19;5013167;28;20074;-69
2023/05/10 05:37:52;;;;;;;141.52;61.75;;;;;;;19.11;44.59;100567.09;5031718;28;20026;-70
2023/05/10 05:40:17;;;;;;;136.35;59.90;;;;;;;19.15;43.51;100560.72;5014593;28;20205;-72
2023/05/10 05:42:43;;;;;;;141.38;62.10;;;;;;;19.19;43.25;100555.16;5013308;28;20083;-70
2023/05/10 05:45:12;;;;;;;129.57;59.53;;;;;;;19.24;42.18;100554.91;5015916;28;20101;-70
2023/05/10 05:47:38;;;;;;;136.45;61.42;;;;;;;19.31;42.49;100553.63;5014381;28;20021;-70
2023/05/10 05:50:04;;;;;;;136.07;61.25;;;;;;;19.38;42.01;100552.34;5015843;28;20037;-69
2023/05/10 05:52:30;;;;;;;139.45;61.97;;;;;;;19.45;41.01;100562.63;5035015;28;20394;-70
2023/05/10 05:54:55;;;;;;;136.40;61.25;;;;;;;19.48;41.17;100562.44;5012228;28;20331;-69
2023/05/10 05:57:21;;;;;;;135.27;60.92;;;;;;;19.56;41.67;100566.34;5009759;28;20034;-70
2023/05/10 05:59:46;;;;;;;141.88;61.83;;;;;;;19.62;40.84;100564.31;5006590;28;20026;-70
2023/05/10 06:02:12;;;;;;;135.75;60.05;;;;;;;19.66;41.49;100566.72;5015205;28;20394;-70
2023/05/10 06:04:37;;;;;;;138.20;60.78;;;;;;;19.70;40.84;100551.47;5031597;28;20033;-70
2023/05/10 06:07:02;;;;;;;139.45;62.17;;;;;;;19.76;41.86;100559.94;5014545;28;20696;-70
2023/05/10 06:09:28;;;;;;;137.63;61.65;;;;;;;19.91;41.31;100555.59;5024796;28;20465;-70
2023/05/10 06:11:53;;;;;;;145.35;62.40;;;;;;;20.01;41.61;100555.91;5029084;28;20034;-70
2023/05/10 06:14:20;;;;;;;153.88;64.22;;;;;;;20.08;41.37;100562.59;5017087;28;20021;-70
2023/05/10 06:16:46;;;;;;;137.80;61.35;;;;;;;20.09;41.49;100564.25;5026283;28;20030;-70
2023/05/10 06:19:11;;;;;;;141.98;60.58;;;;;;;20.07;41.82;100571.47;5001026;28;20079;-70
2023/05/10 06:21:36;;;;;;;147.32;62.65;;;;;;;20.07;41.32;100571.47;5016943;28;20025;-70
2023/05/10 06:24:02;;;;;;;143.07;61.95;;;;;;;20.09;40.64;100574.03;5030451;28;20106;-69
2023/05/10 06:26:28;;;;;;;138.70;60.63;;;;;;;20.06;41.84;100572.41;5008670;28;20402;-70
2023/05/10 06:28:53;;;;;;;143.35;62.95;;;;;;;20.16;41.08;100574.53;5028655;28;20030;-70
2023/05/10 06:31:18;;;;;;;133.23;59.83;;;;;;;20.23;41.60;100575.88;5000446;28;20030;-70
2023/05/10 06:33:44;;;;;;;146.65;60.92;;;;;;;20.31;40.94;100583.38;5026368;28;20033;-70
2023/05/10 06:36:09;;;;;;;138.15;60.28;;;;;;;20.30;40.92;100581.66;5013056;28;20030;-70
2023/05/10 06:38:34;;;;;;;145.57;60.67;;;;;;;20.22;41.33;100585.63;5010771;28;20022;-69
2023/05/10 06:41:00;;;;;;;140.60;61.13;;;;;;;20.16;40.97;100590.44;5028718;28;20027;-69
2023/05/10 06:43:26;;;;;;;137.90;62.10;;;;;;;20.07;41.67;100591.84;4992983;28;20049;-70
2023/05/10 06:45:51;;;;;;;149.02;64.07;;;;;;;20.00;41.24;100579.84;5005330;28;20104;-71
2023/05/10 06:48:17;;;;;;;138.60;60.63;;;;;;;19.98;41.49;100584.41;5013590;28;20030;-70
2023/05/10 06:50:42;;;;;;;142.13;62.67;;;;;;;20.06;41.18;100596.25;5012398;28;20393;-70
2023/05/10 06:53:07;;;;;;;138.00;60.90;;;;;;;20.24;41.19;100590.84;5016719;28;20032;-70
2023/05/10 06:55:33;;;;;;;136.85;60.83;;;;;;;20.39;41.00;100592.59;5033053;28;20128;-70
2023/05/10 06:57:58;;;;;;;137.02;60.50;;;;;;;20.54;40.52;100587.31;5025130;28;20124;-70
2023/05/10 07:00:23;;;;;;;140.27;60.95;;;;;;;20.71;40.47;100596.94;5024984;28;20025;-67
2023/05/10 07:02:49;;;;;;;140.43;60.72;;;;;;;20.93;39.74;100592.03;5009995;28;20410;-69
2023/05/10 07:05:15;;;;;;;131.63;59.40;;;;;;;21.25;39.22;100599.81;5028524;28;20332;-69
2023/05/10 07:07:40;;;;;;;144.25;62.45;;;;;;;21.55;38.35;100592.69;5017923;28;20110;-71
2023/05/10 07:10:07;;;;;;;135.98;60.13;;;;;;;21.78;38.89;100589.38;5004530;28;20406;-72
2023/05/10 07:12:32;;;;;;;141.05;61.45;;;;;;;21.59;37.82;100603.00;5029835;28;20381;-69
2023/05/10 07:14:57;;;;;;;147.25;63.40;;;;;;;21.52;37.29;100591.06;5017002;28;20030;-70
2023/05/10 07:17:23;;;;;;;138.90;62.15;;;;;;;21.46;37.28;100599.44;5045053;28;20025;-69
2023/05/10 07:19:48;;;;;;;152.35;64.50;;;;;;;21.19;37.52;100597.56;5024619;28;20530;-69
2023/05/10 07:22:14;;;;;;;166.45;66.30;;;;;;;21.02;38.14;100601.22;5024027;28;20398;-72
2023/05/10 07:24:40;;;;;;;179.40;67.32;;;;;;;20.86;39.08;100605.78;4998280;28;20151;-69
2023/05/10 07:27:05;;;;;;;146.93;63.58;;;;;;;20.67;38.46;100609.53;4999758;28;20100;-72
2023/05/10 07:29:31;;;;;;;142.27;62.10;;;;;;;20.59;38.34;100602.03;5031088;28;20117;-71
2023/05/10 07:31:56;;;;;;;153.75;64.72;;;;;;;20.51;39.57;100600.78;5000170;28;20029;-68
2023/05/10 07:34:21;;;;;;;146.25;62.65;;;;;;;20.51;39.92;100601.63;5031791;28;20040;-68
2023/05/10 07:36:47;;;;;;;141.88;62.85;;;;;;;20.50;40.45;100607.03;5016195;28;20029;-69
2023/05/10 07:39:12;;;;;;;140.80;62.30;;;;;;;20.47;40.53;100607.22;5025034;28;20101;-69
2023/05/10 07:41:38;;;;;;;141.68;62.60;;;;;;;20.45;40.62;100612.63;5017304;28;20041;-69
2023/05/10 07:44:04;;;;;;;152.63;62.60;;;;;;;20.41;40.67;100605.75;5021851;28;20033;-68
2023/05/10 07:46:29;;;;;;;140.57;60.63;;;;;;;20.42;40.36;100607.47;5030103;28;20120;-68
2023/05/10 07:48:55;;;;;;;144.85;62.15;;;;;;;20.39;40.38;100608.50;5025348;28;20394;-68
2023/05/10 07:51:20;;;;;;;144.93;62.83;;;;;;;20.36;40.66;100608.69;5015526;28;20466;-68
2023/05/10 07:53:45;;;;;;;147.10;63.17;;;;;;;20.37;41.03;100607.75;5011822;28;20036;-69
2023/05/10 07:56:20;;;;;;;138.23;60.65;;;;;;;20.35;40.57;100609.63;5007656;28;20028;-68
2023/05/10 07:58:45;;;;;;;160.82;63.67;;;;;;;20.32;40.85;100607.16;5013659;28;20029;-67
2023/05/10 08:01:10;;;;;;;143.90;62.08;;;;;;;20.30;40.37;100608.19;5021881;28;20025;-67
2023/05/10 08:03:36;;;;;;;139.25;61.75;;;;;;;20.25;40.87;100611.13;5029032;28;20030;-68
2023/05/10 08:06:01;;;;;;;144.50;62.63;;;;;;;20.19;40.84;100616.78;5027889;28;20064;-68
2023/05/10 08:08:26;;;;;;;137.82;61.10;;;;;;;20.16;41.26;100623.09;5026589;28;20038;-68
2023/05/10 08:10:52;;;;;;;147.48;63.40;;;;;;;20.13;40.81;100627.75;5017625;28;20064;-68
2023/05/10 08:13:17;;;;;;;141.00;61.17;;;;;;;20.12;40.95;100626.03;5025853;28;20100;-68
2023/05/10 08:15:42;;;;;;;139.35;61.72;;;;;;;20.08;41.30;100635.94;5037687;28;20100;-67
2023/05/10 08:18:08;;;;;;;136.20;61.75;;;;;;;20.05;41.16;100642.28;5018110;28;20025;-67
2023/05/10 08:20:33;;;;;;;138.10;61.47;;;;;;;20.02;41.23;100641.63;5031763;28;20021;-66
2023/05/10 08:22:59;;;;;;;146.27;62.00;;;;;;;20.00;41.32;100647.00;5032334;28;20178;-68
2023/05/10 08:25:24;;;;;;;137.80;61.00;;;;;;;19.98;41.37;100648.03;5017221;28;20030;-68
2023/05/10 08:27:49;;;;;;;170.15;65.50;;;;;;;19.96;41.20;100642.81;5027350;28;20036;-69
2023/05/10 08:30:15;;;;;;;152.00;63.13;;;;;;;19.97;41.33;100641.00;5030448;28;20022;-68
2023/05/10 08:32:40;;;;;;;153.77;64.03;;;;;;;19.98;41.33;100638.25;5010237;28;20026;-68
2023/05/10 08:35:05;;;;;;;154.65;64.72;;;;;;;20.00;41.39;100639.06;5001310;28;20108;-68
2023/05/10 08:37:32;;;;;;;137.82;60.13;;;;;;;20.07;41.29;100640.41;5008504;28;20112;-68
2023/05/10 08:39:57;;;;;;;160.68;65.53;;;;;;;20.12;40.99;100642.78;5011337;28;20029;-68
2023/05/10 08:42:25;;;;;;;139.30;61.25;;;;;;;20.16;41.07;100649.63;5010514;28;20034;-69
2023/05/10 08:44:51;;;;;;;143.25;61.67;;;;;;;20.19;40.95;100643.28;5019845;28;20026;-69
2023/05/10 08:47:18;;;;;;;137.98;62.22;;;;;;;20.21;40.67;100646.72;5005560;28;20048;-69
2023/05/10 08:49:44;;;;;;;153.38;63.53;;;;;;;20.19;41.02;100637.97;5005321;28;20028;-68
2023/05/10 08:52:11;;;;;;;134.13;60.58;;;;;;;20.21;41.04;100641.41;5007586;28;20029;-69
2023/05/10 08:54:36;;;;;;;143.13;62.83;;;;;;;20.25;40.85;100650.91;4998511;28;20452;-68
2023/05/10 08:57:02;;;;;;;143.25;61.85;;;;;;;20.27;40.66;100655.19;5021131;28;20112;-68
2023/05/10 08:59:27;;;;;;;131.73;61.00;;;;;;;20.30;40.95;100662.09;5016318;28;20013;-69
2023/05/10 09:01:54;;;;;;;141.75;60.90;;;;;;;20.30;40.77;100672.72;5009376;28;20037;-70
2023/05/10 09:04:20;;;;;;;149.88;63.38;;;;;;;20.27;41.47;100662.25;5006973;28;20025;-72
2023/05/10 09:06:45;;;;;;;138.55;60.97;;;;;;;20.28;41.12;100669.28;5023852;28;20034;-71
2023/05/10 09:09:11;;;;;;;142.52;62.88;;;;;;;20.30;41.69;100675.38;5023354;28;20027;-72
2023/05/10 09:11:36;;;;;;;136.13;60.28;;;;;;;20.35;41.25;100681.25;4990312;28;20061;-71
2023/05/10 09:14:02;;;;;;;143.05;61.35;;;;;;;20.44;40.96;100683.38;5002275;28;20121;-71
2023/05/10 09:16:27;;;;;;;144.13;62.97;;;;;;;20.44;40.88;100683.38;5009096;28;20021;-70
2023/05/10 09:18:53;;;;;;;149.68;63.55;;;;;;;20.45;41.19;100686.91;5022426;28;20044;-70
2023/05/10 09:21:19;;;;;;;149.77;64.10;;;;;;;20.43;41.73;100694.91;4997135;28;20017;-71
2023/05/10 09:23:46;;;;;;;138.40;61.30;;;;;;;20.36;41.46;100693.56;5016433;28;20053;-68
2023/05/10 09:26:12;;;;;;;137.05;60.90;;;;;;;20.29;41.95;100697.53;5036974;28;20026;-69
2023/05/10 09:28:55;;;;;;;137.25;61.13;;;;;;;20.26;41.93;100700.34;5019464;28;20517;-69
2023/05/10 09:31:21;;;;;;;138.52;61.50;;;;;;;20.25;42.03;100712.75;5037645;28;20030;-68
2023/05/10 09:33:48;;;;;;;137.85;61.70;;;;;;;20.22;41.67;100712.94;5019663;28;20037;-69
2023/05/10 09:36:14;;;;;;;136.38;60.45;;;;;;;20.20;41.57;100713.94;5020268;28;20033;-68
2023/05/10 09:38:47;;;;;;;142.38;61.95;;;;;;;20.14;42.09;100720.47;5016758;28;20070;-68
2023/05/10 09:41:21;;;;;;;138.50;61.15;;;;;;;20.14;42.20;100727.53;5020553;28;20025;-70
2023/05/10 09:43:46;;;;;;;142.48;61.30;;;;;;;20.08;42.70;100728.75;5013305;28;20041;-69
2023/05/10 09:46:12;;;;;;;151.30;65.05;;;;;;;20.07;43.08;100729.69;5012102;28;20027;-69
2023/05/10 09:48:47;;;;;;;156.82;65.97;;;;;;;20.05;43.30;100735.06;5030370;28;20029;-70
2023/05/10 09:51:23;;;;;;;152.55;63.80;;;;;;;20.04;43.45;100736.03;5011615;28;20144;-69
2023/05/10 09:54:09;;;;;;;151.80;63.58;;;;;;;20.05;42.86;100731.56;5007681;28;20033;-70
2023/05/10 09:56:36;;;;;;;142.98;63.25;;;;;;;20.05;51.01;100731.56;5006866;28;20036;-71
2023/05/10 09:59:05;;;;;;;152.00;65.68;;;;;;;20.00;45.86;100739.78;5012861;28;20064;-71
2023/05/10 10:01:30;;;;;;;141.50;63.30;;;;;;;19.97;45.04;100739.94;5013388;28;20024;-73
2023/05/10 10:03:57;;;;;;;150.88;65.28;;;;;;;19.91;44.69;100743.78;5014365;28;20092;-78
2023/05/10 10:06:23;;;;;;;149.48;63.70;;;;;;;19.88;44.23;100753.72;5014319;28;20049;-73
2023/05/10 10:08:48;;;;;;;145.43;63.25;;;;;;;19.86;44.65;100755.56;5013894;28;20061;-74
2023/05/10 10:11:14;;;;;;;158.40;66.15;;;;;;;19.80;44.15;100758.53;5004933;28;20026;-72
2023/05/10 10:13:39;;;;;;;146.05;63.72;;;;;;;19.80;44.22;100759.41;5009544;28;20044;-71
2023/05/10 10:16:05;;;;;;;145.02;63.17;;;;;;;19.84;44.37;100765.41;5013085;28;20025;-72
2023/05/10 10:18:30;;;;;;;170.82;70.25;;;;;;;19.81;44.41;100765.56;4993952;28;20139;-71
2023/05/10 10:20:56;;;;;;;139.75;63.10;;;;;;;19.79;44.45;100762.97;5006644;28;20039;-71
2023/05/10 10:23:21;;;;;;;147.57;63.10;;;;;;;19.76;44.62;100763.13;5006377;28;20067;-72
2023/05/10 10:25:48;;;;;;;168.23;65.68;;;;;;;19.71;44.38;100766.03;5009428;28;20050;-72
2023/05/10 10:28:33;;;;;;;162.80;66.32;;;;;;;19.73;44.13;100761.50;5010052;28;20104;-73
2023/05/10 10:31:03;;;;;;;150.13;62.85;;;;;;;19.72;44.95;100767.75;5010617;28;20026;-74
2023/05/10 10:34:01;;;;;;;161.40;64.43;;;;;;;19.76;44.42;100764.00;5009974;28;20029;-72
2023/05/10 10:36:27;;;;;;;142.98;61.97;;;;;;;19.82;44.66;100773.44;5013797;28;20017;-74
2023/05/10 10:39:00;;;;;;;160.10;64.47;;;;;;;19.87;44.24;100762.59;5020565;28;20076;-72
2023/05/10 10:41:28;;;;;;;158.48;65.13;;;;;;;19.90;44.48;100765.91;5067177;22;20049;-75
2023/05/10 10:44:25;;;;;;;156.98;63.75;;;;;;;19.93;44.43;100771.06;5031692;28;20029;-74
2023/05/10 10:47:22;;;;;;;151.18;63.13;;;;;;;19.94;44.49;100769.28;5036706;28;20036;-75
2023/05/10 10:49:49;;;;;;;148.70;63.33;;;;;;;19.96;44.44;100774.47;5040459;28;20029;-74
2023/05/10 10:52:43;;;;;;;135.13;61.65;;;;;;;19.98;44.65;100784.06;5036657;28;20056;-74
2023/05/10 10:55:09;;;;;;;143.77;62.60;;;;;;;19.99;44.12;100774.31;5017639;28;20021;-73
2023/05/10 10:57:40;;;;;;;139.82;62.53;;;;;;;20.00;44.07;100790.16;5054088;28;20028;-74
2023/05/10 11:00:28;;;;;;;146.82;64.53;;;;;;;20.02;44.52;100779.47;5036344;28;20042;-74
2023/05/10 11:03:14;;;;;;;147.57;62.95;;;;;;;20.05;44.05;100784.59;5035651;28;20438;-74